Chepstow, United Kingdom
Current Conditions -  °F | °C
As of 2:50 AM on Sunday 26 Oct 2014 (Local Time) from EGGD Reporting Station
Broken Clouds Broken Clouds  
Wind Chill: 12°   Ceiling: 3200
Heat Index: 12°   Visibility: 6mi
Dew Point:   Wind: 12mph
Humidity: 77%   Direction: 210°SSW
Pressure: 30.12"   Gusts: NA
Location:  51.64°N, 2.68°W
Report Text: EGGD 260150Z 21010KT 9999 BKN032 12/08 Q1020
Loading
Personal Weather Stations






























Interactive Weather Map
Tropical Storm Tracking
New forecast layout! Learn more

10-Day Weather Forecast

Advertisements
Track Severe Weather on mobile